Aigle Des Mers — FO4883 — position and weather

sailwx.info

Track history (hours):
 
Tides and Currents Weather Stations Pressure Air Temp Water Temp Dewpoint Dewpoint Depression Visibility Wind Speed Wind Dir Waves Ship Positions

Aigle Des Mers

Last reported at 2016-May-27 00:33 UTC. Time now 2016-May-29 15:25 UTC.
Position N 48°06' W 004°19'.

Type: Fishing. MMSI: 227318010.

Date/timePositionNaut miles runAvg speedWind from/ knotsBaromVisibWave heightAir tempDewpointWater temp
2016-May-27 00:33N 48°06' W 004°19'6 5.6
2016-May-26 23:34N 48°11' W 004°20'4 4.0
2016-May-26 22:34N 48°09' W 004°25'8 7.8
2016-May-26 21:34N 48°08' W 004°37'3 3.4
2016-May-26 20:34N 48°10' W 004°41'1 0.6
2016-May-26 19:34N 48°11' W 004°41'4 4.4
2016-May-26 18:34N 48°09' W 004°35'9 8.6
2016-May-26 17:34N 48°07' W 004°22'2 0.2
2016-May-26 02:09N 48°06' W 004°19'4 6.6
2016-May-26 01:34N 48°07' W 004°25'9 9.3
2016-May-26 00:33N 48°05' W 004°39'9 8.2
2016-May-25 23:27N 47°58' W 004°48'4 4.1
2016-May-25 22:34N 47°56' W 004°45'5 4.5
2016-May-25 21:32N 47°54' W 004°38'3 1.4
2016-May-25 19:33N 47°56' W 004°40'8 8.5
2016-May-25 18:33N 48°05' W 004°41'9 9.1
2016-May-25 17:33N 48°07' W 004°28'6 0.3
2016-May-25 00:27N 48°06' W 004°19'5 5.4
2016-May-24 23:33N 48°10' W 004°23'1 1.2
2016-May-24 22:34N 48°11' W 004°24'5 4.8
2016-May-24 21:33N 48°09' W 004°30'5 5.1
2016-May-24 20:34N 48°10' W 004°37'2 2.0
2016-May-24 19:34N 48°12' W 004°39'2 1.9
2016-May-24 18:34N 48°10' W 004°38'7 6.7
2016-May-24 17:34N 48°09' W 004°28'6 0.3
2016-May-23 23:33N 48°06' W 004°19'6 6.0
2016-May-23 22:33N 48°07' W 004°28'4 3.8
2016-May-23 21:33N 48°06' W 004°34'5 5.1
2016-May-23 20:34N 48°10' W 004°39'4 4.5
2016-May-23 19:33N 48°12' W 004°45'7 6.8
2016-May-23 18:34N 48°09' W 004°36'9 8.8
2016-May-23 17:33N 48°07' W 004°23'3 0.1
2016-May-22 17:33N 48°06' W 004°19'  
2016-May-19 23:19N 48°06' W 004°19'0 0.1
2016-May-19 22:33N 48°06' W 004°19'5 4.6
2016-May-19 21:33N 48°07' W 004°26'5 5.3
2016-May-19 20:33N 48°06' W 004°34'0 0.3
2016-May-19 19:33N 48°06' W 004°34'1 1.2
2016-May-19 18:34N 48°07' W 004°34'6 5.5
2016-May-19 17:31N 48°07' W 004°25'4 0.1
2016-May-18 03:17N 48°06' W 004°19'0 0.0
2016-May-18 02:33N 48°06' W 004°19'0 0.0
2016-May-18 01:33N 48°06' W 004°19'0 0.0
2016-May-18 00:33N 48°06' W 004°19'4 4.5
2016-May-17 23:34N 48°08' W 004°26'9 8.7
2016-May-17 22:33N 48°11' W 004°37'6 6.1
2016-May-17 21:33N 48°15' W 004°45'1 0.8
2016-May-17 20:33N 48°14' W 004°46'0 0.3
2016-May-17 19:34N 48°14' W 004°46'6 5.5
2016-May-17 18:33N 48°10' W 004°40'8 7.6
2016-May-17 17:31N 48°09' W 004°28'  
Track history (hours):
 
Tides and Currents Weather Stations Pressure Air Temp Water Temp Dewpoint Dewpoint Depression Visibility Wind Speed Wind Dir Waves Ship Positions

Aigle Des Mers

Last reported at 2016-May-27 00:33 UTC. Time now 2016-May-29 15:25 UTC.
Position N 48°06' W 004°19'.

Type: Fishing. MMSI: 227318010.

Date/timePositionNaut miles runAvg speedWind from/ knotsBaromVisibWave heightAir tempDewpointWater temp
2016-May-27 00:33N 48°06' W 004°19'6 5.6
2016-May-26 23:34N 48°11' W 004°20'4 4.0
2016-May-26 22:34N 48°09' W 004°25'8 7.8
2016-May-26 21:34N 48°08' W 004°37'3 3.4
2016-May-26 20:34N 48°10' W 004°41'1 0.6
2016-May-26 19:34N 48°11' W 004°41'4 4.4
2016-May-26 18:34N 48°09' W 004°35'9 8.6
2016-May-26 17:34N 48°07' W 004°22'2 0.2
2016-May-26 02:09N 48°06' W 004°19'4 6.6
2016-May-26 01:34N 48°07' W 004°25'9 9.3
2016-May-26 00:33N 48°05' W 004°39'9 8.2
2016-May-25 23:27N 47°58' W 004°48'4 4.1
2016-May-25 22:34N 47°56' W 004°45'5 4.5
2016-May-25 21:32N 47°54' W 004°38'3 1.4
2016-May-25 19:33N 47°56' W 004°40'8 8.5
2016-May-25 18:33N 48°05' W 004°41'9 9.1
2016-May-25 17:33N 48°07' W 004°28'6 0.3
2016-May-25 00:27N 48°06' W 004°19'5 5.4
2016-May-24 23:33N 48°10' W 004°23'1 1.2
2016-May-24 22:34N 48°11' W 004°24'5 4.8
2016-May-24 21:33N 48°09' W 004°30'5 5.1
2016-May-24 20:34N 48°10' W 004°37'2 2.0
2016-May-24 19:34N 48°12' W 004°39'2 1.9
2016-May-24 18:34N 48°10' W 004°38'7 6.7
2016-May-24 17:34N 48°09' W 004°28'6 0.3
2016-May-23 23:33N 48°06' W 004°19'6 6.0
2016-May-23 22:33N 48°07' W 004°28'4 3.8
2016-May-23 21:33N 48°06' W 004°34'5 5.1
2016-May-23 20:34N 48°10' W 004°39'4 4.5
2016-May-23 19:33N 48°12' W 004°45'7 6.8
2016-May-23 18:34N 48°09' W 004°36'9 8.8
2016-May-23 17:33N 48°07' W 004°23'3 0.1
2016-May-22 17:33N 48°06' W 004°19'  
2016-May-19 23:19N 48°06' W 004°19'0 0.1
2016-May-19 22:33N 48°06' W 004°19'5 4.6
2016-May-19 21:33N 48°07' W 004°26'5 5.3
2016-May-19 20:33N 48°06' W 004°34'0 0.3
2016-May-19 19:33N 48°06' W 004°34'1 1.2
2016-May-19 18:34N 48°07' W 004°34'6 5.5
2016-May-19 17:31N 48°07' W 004°25'4 0.1
2016-May-18 03:17N 48°06' W 004°19'0 0.0
2016-May-18 02:33N 48°06' W 004°19'0 0.0
2016-May-18 01:33N 48°06' W 004°19'0 0.0
2016-May-18 00:33N 48°06' W 004°19'4 4.5
2016-May-17 23:34N 48°08' W 004°26'9 8.7
2016-May-17 22:33N 48°11' W 004°37'6 6.1
2016-May-17 21:33N 48°15' W 004°45'1 0.8
2016-May-17 20:33N 48°14' W 004°46'0 0.3
2016-May-17 19:34N 48°14' W 004°46'6 5.5
2016-May-17 18:33N 48°10' W 004°40'8 7.6
2016-May-17 17:31N 48°09' W 004°28'  

Dump ship's entire track history